Terminal Aerodrome Forecast
Issued by NWS Shreveport, LA

Home | Current Version | Previous Version | Text Only | Print | Product List | Glossary On
Versions: 1 2 3 4 5 6 7 8 9 10 11 12 13 14 15 16 17 18 19
000
FTUS44 KSHV 282336
TAFELD
TAF
KELD 282336Z 2900/2924 14005KT P6SM SKC
     FM290900 VRB03KT 2SM BR BKN005
     FM291500 20006KT P6SM BKN015
     FM291700 20008KT P6SM VCTS BKN035CB=

USA.gov is the U.S. government's official web portal to all federal, state and local government web resources and services.